Time;durP1;ratioP1;P1;durP2;ratioP2;P2;SDS_P1;SDS_P2;PMS_P1;PMS_P2;Temp;Humidity;BMP_temperature;BMP_pressure;BME280_temperature;BME280_humidity;BME280_pressure;Samples;Min_cycle;Max_cycle;Signal;HPM_P1;HPM_P2
2022/09/18 00:01:15;;;;;;;12.23;11.45;;;;;;;20.57;76.31;99322.03;5012062;28;102204;-55
2022/09/18 00:03:45;;;;;;;14.13;13.32;;;;;;;20.56;76.36;99324.00;5001654;28;103909;-55
2022/09/18 00:06:13;;;;;;;12.82;12.02;;;;;;;20.57;76.33;99338.63;5015373;28;102258;-54
2022/09/18 00:08:44;;;;;;;14.75;13.77;;;;;;;20.57;76.28;99330.34;5015410;28;102000;-54
2022/09/18 00:11:12;;;;;;;12.70;11.90;;;;;;;20.58;76.43;99334.69;5008912;28;102155;-55
2022/09/18 00:13:43;;;;;;;12.20;11.50;;;;;;;20.57;76.44;99327.56;5015043;28;104099;-56
2022/09/18 00:16:12;;;;;;;13.15;12.25;;;;;;;20.57;76.34;99327.56;5014808;28;102020;-55
2022/09/18 00:18:39;;;;;;;12.82;11.98;;;;;;;20.57;76.35;99338.63;5014253;28;102525;-54
2022/09/18 00:21:09;;;;;;;13.23;12.43;;;;;;;20.57;76.28;99341.38;5002939;28;102313;-53
2022/09/18 00:23:36;;;;;;;12.43;11.73;;;;;;;20.57;76.32;99353.25;5013929;28;104166;-54
2022/09/18 00:26:04;;;;;;;13.05;12.25;;;;;;;20.58;76.36;99356.78;5001231;28;102620;-54
2022/09/18 00:28:31;;;;;;;14.68;13.77;;;;;;;20.57;76.37;99357.97;4995889;28;102133;-55
2022/09/18 00:31:03;;;;;;;13.63;12.82;;;;;;;20.59;76.34;99358.38;4999240;28;102369;-54
2022/09/18 00:33:30;;;;;;;13.05;12.23;;;;;;;20.59;76.32;99352.84;4994861;28;104008;-54
2022/09/18 00:36:00;;;;;;;12.53;11.83;;;;;;;20.59;76.46;99358.38;4995547;28;102037;-55
2022/09/18 00:38:28;;;;;;;;;;;;;;;20.57;76.34;99333.88;5015229;28;102063;-54
2022/09/18 00:40:54;;;;;;;12.45;11.65;;;;;;;20.57;76.43;99328.38;5011681;28;102616;-56
2022/09/18 00:43:23;;;;;;;13.02;12.23;;;;;;;20.58;76.35;99329.16;5002781;28;104104;-54
2022/09/18 00:45:54;;;;;;;13.27;12.35;;;;;;;20.58;76.55;99334.69;4999737;28;102163;-55
2022/09/18 00:48:26;;;;;;;12.38;11.65;;;;;;;20.58;76.38;99323.63;5005680;28;102274;-55
2022/09/18 00:50:53;;;;;;;12.68;11.93;;;;;;;20.58;76.37;99323.63;5019166;28;102005;-54
2022/09/18 00:53:19;;;;;;;13.10;12.35;;;;;;;20.57;76.40;99328.38;5018093;28;103883;-54
2022/09/18 00:55:47;;;;;;;12.48;11.77;;;;;;;20.58;76.37;99335.47;5017392;28;102101;-54
2022/09/18 00:58:14;;;;;;;12.40;11.68;;;;;;;20.57;76.24;99333.88;5018129;28;102727;-55
2022/09/18 01:00:41;;;;;;;12.55;11.75;;;;;;;20.57;76.52;99322.84;5018833;28;102547;-54
2022/09/18 01:03:07;;;;;;;14.25;13.38;;;;;;;20.58;76.51;99312.56;5012003;28;104175;-54
2022/09/18 01:05:50;;;;;;;15.23;14.32;;;;;;;20.57;76.53;99306.25;5002711;28;101965;-55
2022/09/18 01:08:29;;;;;;;13.68;12.88;;;;;;;20.56;76.43;99299.13;5018125;28;102264;-54
2022/09/18 01:11:14;;;;;;;11.32;10.65;;;;;;;20.57;76.27;99306.25;5017474;28;102134;-54
2022/09/18 01:13:48;;;;;;;12.80;12.00;;;;;;;20.57;76.41;99306.25;5018105;28;103896;-54
2022/09/18 01:16:24;;;;;;;13.48;12.57;;;;;;;20.58;76.50;99312.56;5018435;28;102026;-54
2022/09/18 01:19:01;;;;;;;12.85;12.13;;;;;;;20.57;76.47;99311.00;5015526;28;102449;-54
2022/09/18 01:21:32;;;;;;;13.82;13.02;;;;;;;20.57;76.21;99303.50;4999075;28;102217;-54
2022/09/18 01:24:35;;;;;;;13.80;12.93;;;;;;;20.57;76.48;99295.19;4997689;28;104186;-54
2022/09/18 01:27:05;;;;;;;13.15;12.32;;;;;;;20.57;76.42;99277.81;4998196;28;101913;-54
2022/09/18 01:29:45;;;;;;;12.80;12.00;;;;;;;20.57;76.35;99277.81;4998229;28;102317;-54
2022/09/18 01:32:20;;;;;;;12.75;12.02;;;;;;;20.57;76.45;99272.28;5013252;28;102410;-54
2022/09/18 01:34:55;;;;;;;12.38;11.57;;;;;;;20.57;76.36;99277.81;5016712;28;103865;-54
2022/09/18 01:37:27;;;;;;;11.90;11.20;;;;;;;20.57;76.37;99275.84;5017598;28;101887;-54
2022/09/18 01:39:59;;;;;;;13.73;12.93;;;;;;;20.57;76.37;99269.53;5008224;28;101883;-54
2022/09/18 01:42:28;;;;;;;12.77;12.00;;;;;;;20.57;76.44;99264.00;5009491;28;102415;-54
2022/09/18 01:45:04;;;;;;;12.82;12.07;;;;;;;20.56;76.44;99254.91;5016927;28;104299;-54
2022/09/18 01:47:36;;;;;;;11.82;10.98;;;;;;;20.57;76.33;99247.41;5002279;28;102669;-55
2022/09/18 01:50:05;;;;;;;10.68;9.98;;;;;;;20.57;76.54;99244.66;4997613;28;102237;-54
2022/09/18 01:52:37;;;;;;;12.93;12.07;;;;;;;20.57;76.50;99230.84;5013945;28;102281;-54
2022/09/18 01:55:10;;;;;;;11.50;10.80;;;;;;;20.55;76.41;99222.91;5015359;28;103879;-54
2022/09/18 01:57:47;;;;;;;11.88;11.18;;;;;;;20.56;76.36;99238.34;5017925;28;102253;-54
2022/09/18 02:00:16;;;;;;;11.73;10.95;;;;;;;20.56;76.46;99235.56;5016021;28;101995;-54
2022/09/18 02:02:47;;;;;;;12.35;11.48;;;;;;;20.56;76.42;99243.88;5017695;28;102458;-54
2022/09/18 02:05:19;;;;;;;11.38;10.57;;;;;;;20.57;76.45;99261.25;5017155;28;103982;-54
2022/09/18 02:07:54;;;;;;;13.07;12.38;;;;;;;20.57;76.39;99272.28;5010361;28;102403;-55
2022/09/18 02:10:23;;;;;;;10.18;9.48;;;;;;;20.58;76.45;99274.66;4997283;28;102375;-54
2022/09/18 02:12:52;;;;;;;10.85;10.15;;;;;;;20.57;76.46;99277.81;5015249;28;102686;-55
2022/09/18 02:15:24;;;;;;;10.25;9.63;;;;;;;20.57;76.47;99275.84;5018570;28;103917;-54
2022/09/18 02:17:54;;;;;;;10.30;9.68;;;;;;;20.56;76.48;99254.91;5038064;27;103493;-55
2022/09/18 02:20:25;;;;;;;11.55;10.85;;;;;;;20.58;76.53;99273.88;5023082;27;102289;-55
2022/09/18 02:22:55;;;;;;;9.60;9.00;;;;;;;20.56;76.50;99277.03;5009485;28;102273;-54
2022/09/18 02:25:25;;;;;;;10.98;10.27;;;;;;;20.57;76.54;99277.81;4996644;28;103919;-55
2022/09/18 02:27:53;;;;;;;11.23;10.52;;;;;;;20.57;76.44;99264.00;5013768;28;102201;-54
2022/09/18 02:30:21;;;;;;;;;;;;;;;20.57;76.45;99255.72;5015321;28;102356;-55
2022/09/18 02:32:52;;;;;;;10.73;10.02;;;;;;;20.56;76.53;99254.91;4998826;28;102149;-54
2022/09/18 02:35:20;;;;;;;11.13;10.35;;;;;;;20.57;76.48;99250.19;5016500;28;103852;-52
2022/09/18 02:37:56;;;;;;;12.23;11.40;;;;;;;20.57;76.39;99247.41;5003211;28;102350;-55
2022/09/18 02:40:32;;;;;;;11.07;10.38;;;;;;;20.57;76.65;99253.75;5014596;28;102297;-54
2022/09/18 02:43:19;;;;;;;11.52;10.82;;;;;;;20.57;76.52;99266.75;4997807;28;102022;-54
2022/09/18 02:45:57;;;;;;;11.77;10.98;;;;;;;20.57;76.47;99275.06;4996530;28;103926;-54
2022/09/18 02:48:43;;;;;;;10.23;9.52;;;;;;;20.57;76.78;99272.28;5011151;28;102475;-54
2022/09/18 02:51:17;;;;;;;11.77;10.98;;;;;;;20.57;76.49;99261.25;5015681;28;102171;-54
2022/09/18 02:53:49;;;;;;;13.23;12.38;;;;;;;20.57;76.56;99252.94;5013537;28;102251;-54
2022/09/18 02:56:21;;;;;;;14.05;13.15;;;;;;;20.57;76.50;99266.75;4998007;28;103909;-54
2022/09/18 02:58:53;;;;;;;11.82;11.13;;;;;;;20.56;76.52;99265.19;5008541;28;102040;-54
2022/09/18 03:01:24;;;;;;;12.10;11.32;;;;;;;20.57;76.68;99261.25;5006610;28;103016;-54
2022/09/18 03:03:50;;;;;;;16.23;15.23;;;;;;;20.56;76.57;99254.91;5005998;28;102039;-54
2022/09/18 03:06:17;;;;;;;14.73;13.82;;;;;;;20.57;76.92;99262.03;4996628;28;103980;-55
2022/09/18 03:08:45;;;;;;;14.00;13.20;;;;;;;20.58;76.61;99268.34;4998571;28;102433;-55
2022/09/18 03:11:12;;;;;;;11.82;11.07;;;;;;;20.57;76.49;99266.75;5005199;28;102221;-54
2022/09/18 03:13:39;;;;;;;14.52;13.63;;;;;;;20.57;76.66;99266.75;5016374;28;102441;-54
2022/09/18 03:16:05;;;;;;;13.18;12.32;;;;;;;20.57;76.75;99267.56;5014451;28;104196;-55
2022/09/18 03:18:33;;;;;;;15.85;14.85;;;;;;;20.57;76.62;99272.28;4997598;28;102822;-54
2022/09/18 03:21:00;;;;;;;15.95;14.88;;;;;;;20.57;76.54;99275.06;5007501;28;103394;-54
2022/09/18 03:23:27;;;;;;;12.45;11.57;;;;;;;20.57;76.68;99278.63;5017239;28;102291;-54
2022/09/18 03:25:53;;;;;;;13.68;12.80;;;;;;;20.57;76.65;99283.34;5015779;28;103955;-55
2022/09/18 03:28:20;;;;;;;11.93;11.13;;;;;;;20.57;76.67;99272.28;5014819;28;102237;-54
2022/09/18 03:30:48;;;;;;;12.40;11.60;;;;;;;20.59;76.72;99275.47;5002009;28;102375;-54
2022/09/18 03:33:15;;;;;;;15.10;14.18;;;;;;;20.57;76.53;99273.09;5002466;28;102481;-54
2022/09/18 03:35:43;;;;;;;16.05;15.05;;;;;;;20.57;76.69;99277.81;5015622;28;104171;-54
2022/09/18 03:38:10;;;;;;;15.77;14.73;;;;;;;20.58;76.56;99271.13;5016298;28;101950;-54
2022/09/18 03:40:37;;;;;;;14.82;13.90;;;;;;;20.57;76.73;99267.56;5002798;28;103335;-54
2022/09/18 03:43:03;;;;;;;16.23;15.23;;;;;;;20.58;76.59;99265.59;4995259;28;102180;-54
2022/09/18 03:45:30;;;;;;;15.27;14.27;;;;;;;20.57;76.68;99262.03;4994976;28;103836;-55
2022/09/18 03:47:57;;;;;;;15.25;14.23;;;;;;;20.57;76.62;99267.56;4996735;28;102172;-54
2022/09/18 03:50:23;;;;;;;14.88;13.73;;;;;;;20.58;76.55;99257.28;4988325;28;102321;-55
2022/09/18 03:52:51;;;;;;;13.35;12.40;;;;;;;20.57;76.62;99255.72;4990612;28;102116;-55
2022/09/18 03:55:18;;;;;;;15.18;14.20;;;;;;;20.57;76.67;99262.03;4992373;28;104026;-54
2022/09/18 03:57:44;;;;;;;14.10;13.00;;;;;;;20.56;76.67;99254.13;5009049;28;102263;-54
2022/09/18 04:00:13;;;;;;;11.90;11.18;;;;;;;20.56;76.83;99260.44;5000220;28;102128;-54
2022/09/18 04:02:39;;;;;;;13.25;12.35;;;;;;;20.57;76.67;99255.72;4996217;28;105079;-54
2022/09/18 04:05:08;;;;;;;10.75;10.00;;;;;;;20.58;76.69;99268.34;4995401;28;104082;-54
2022/09/18 04:07:35;;;;;;;14.05;13.07;;;;;;;20.57;76.67;99270.31;4980318;28;102032;-54
2022/09/18 04:10:03;;;;;;;13.07;12.07;;;;;;;20.57;76.62;99266.75;5000410;28;102266;-54
2022/09/18 04:12:29;;;;;;;12.23;11.35;;;;;;;20.57;76.63;99277.81;5016243;28;102141;-54
2022/09/18 04:14:56;;;;;;;16.50;15.50;;;;;;;20.57;76.59;99278.63;5013441;28;103955;-54
2022/09/18 04:17:22;;;;;;;17.42;16.40;;;;;;;20.57;76.66;99278.63;5015706;28;102262;-54
2022/09/18 04:19:49;;;;;;;16.90;15.88;;;;;;;20.57;76.83;99272.28;5011878;28;102602;-54
2022/09/18 04:22:15;;;;;;;15.77;14.88;;;;;;;20.57;76.70;99272.28;4997271;28;102231;-54
2022/09/18 04:24:43;;;;;;;15.60;14.57;;;;;;;20.57;76.73;99275.06;4997093;28;103932;-54
2022/09/18 04:27:11;;;;;;;18.37;17.20;;;;;;;20.57;76.41;99275.06;4995726;28;102221;-54
2022/09/18 04:29:38;;;;;;;14.60;13.73;;;;;;;20.57;76.70;99272.28;5001486;28;102242;-55
2022/09/18 04:32:05;;;;;;;15.70;14.80;;;;;;;20.57;76.67;99278.63;5016068;28;102150;-54
2022/09/18 04:34:31;;;;;;;16.38;15.48;;;;;;;20.57;76.66;99272.28;5014406;28;103948;-54
2022/09/18 04:36:58;;;;;;;15.38;14.43;;;;;;;20.58;76.61;99273.88;5015419;28;102376;-54
2022/09/18 04:39:24;;;;;;;18.35;17.15;;;;;;;20.57;76.62;99278.63;5000579;28;102200;-54
2022/09/18 04:41:51;;;;;;;15.52;14.65;;;;;;;20.57;76.54;99281.38;5016562;28;102176;-54
2022/09/18 04:44:19;;;;;;;13.75;12.85;;;;;;;20.58;76.74;99282.16;5014706;28;103927;-54
2022/09/18 04:46:45;;;;;;;14.43;13.52;;;;;;;20.58;76.55;99279.41;5001250;28;102475;-55
2022/09/18 04:49:12;;;;;;;14.82;13.93;;;;;;;20.58;76.54;99290.47;5014914;28;102360;-54
2022/09/18 04:51:38;;;;;;;14.82;13.82;;;;;;;20.58;76.62;99282.97;5016597;28;102576;-54
2022/09/18 04:54:05;;;;;;;13.68;12.90;;;;;;;20.58;76.56;99284.94;5013775;28;104031;-54
2022/09/18 04:56:32;;;;;;;15.35;14.35;;;;;;;20.58;76.47;99291.25;5000511;28;102051;-53
2022/09/18 04:58:59;;;;;;;15.07;14.18;;;;;;;20.61;76.50;99289.72;5002691;28;102201;-54
2022/09/18 05:01:27;;;;;;;14.77;13.85;;;;;;;20.61;76.49;99296.03;5006206;28;102278;-54
2022/09/18 05:03:54;;;;;;;13.20;12.43;;;;;;;20.63;76.51;99290.16;5013749;28;103932;-53
2022/09/18 05:06:20;;;;;;;15.30;14.02;;;;;;;20.62;76.58;99288.53;5003529;28;101929;-54
2022/09/18 05:08:46;;;;;;;14.98;13.73;;;;;;;20.63;76.50;99288.19;4994441;28;102062;-55
2022/09/18 05:11:13;;;;;;;14.02;13.23;;;;;;;20.66;76.54;99288.59;5010647;28;102106;-54
2022/09/18 05:13:40;;;;;;;14.38;13.48;;;;;;;20.67;76.62;99287.44;5012224;28;104935;-54
2022/09/18 05:16:06;;;;;;;15.23;14.27;;;;;;;20.68;76.49;99277.97;5014359;28;102419;-54
2022/09/18 05:18:35;;;;;;;13.75;12.95;;;;;;;20.69;76.33;99272.06;5014851;28;102294;-55
2022/09/18 05:21:02;;;;;;;16.48;15.48;;;;;;;20.70;76.41;99270.91;4999247;28;102354;-55
2022/09/18 05:23:28;;;;;;;14.90;13.70;;;;;;;20.71;76.42;99275.25;5005837;28;103928;-54
2022/09/18 05:25:55;;;;;;;12.90;12.05;;;;;;;20.72;76.24;99274.06;5002371;28;104527;-54
2022/09/18 05:28:21;;;;;;;13.68;12.77;;;;;;;20.75;76.30;99283.59;5007060;28;102134;-55
2022/09/18 05:30:49;;;;;;;13.55;12.68;;;;;;;20.75;76.34;99278.84;5015511;28;103338;-54
2022/09/18 05:33:15;;;;;;;13.60;12.65;;;;;;;20.75;76.25;99267.81;5008749;28;104115;-54
2022/09/18 05:35:43;;;;;;;13.95;13.15;;;;;;;20.77;76.25;99275.69;5000016;28;102312;-54
2022/09/18 05:38:10;;;;;;;12.67;11.87;;;;;;;20.78;76.22;99269.03;5013503;28;102116;-54
2022/09/18 05:40:38;;;;;;;12.13;11.43;;;;;;;20.77;75.98;99268.22;5013398;28;102465;-54
2022/09/18 05:43:06;;;;;;;12.50;11.68;;;;;;;20.78;76.10;99266.25;5014728;28;103936;-54
2022/09/18 05:45:33;;;;;;;12.75;11.95;;;;;;;20.79;75.91;99270.63;5017257;28;102079;-54
2022/09/18 05:48:01;;;;;;;14.02;13.23;;;;;;;20.79;76.01;99263.09;5007872;28;102230;-54
2022/09/18 05:50:29;;;;;;;12.68;11.80;;;;;;;20.79;76.10;99263.09;5016316;28;102223;-54
2022/09/18 05:53:01;;;;;;;12.95;11.88;;;;;;;20.80;76.02;99270.22;5013989;28;104058;-54
2022/09/18 05:55:28;;;;;;;12.15;11.40;;;;;;;20.81;75.94;99271.84;5001321;28;102447;-54
2022/09/18 05:57:56;;;;;;;12.38;11.48;;;;;;;20.82;75.95;99272.63;5003269;28;102230;-54
2022/09/18 06:00:23;;;;;;;12.02;11.18;;;;;;;20.80;75.92;99264.69;5008149;28;102586;-54
2022/09/18 06:02:54;;;;;;;11.68;10.98;;;;;;;20.82;76.00;99267.09;5003095;28;104536;-55
2022/09/18 06:05:20;;;;;;;12.65;11.63;;;;;;;20.81;75.94;99263.53;4987564;28;103586;-54
2022/09/18 06:07:47;;;;;;;11.18;10.48;;;;;;;20.82;75.72;99270.66;4993274;28;102176;-54
2022/09/18 06:10:16;;;;;;;12.57;11.70;;;;;;;20.83;75.80;99258.41;4994235;28;102215;-54
2022/09/18 06:12:42;;;;;;;11.48;10.77;;;;;;;20.83;76.01;99263.94;4996680;28;104089;-55
2022/09/18 06:15:10;;;;;;;10.38;9.68;;;;;;;20.82;75.92;99269.88;4991594;28;102555;-54
2022/09/18 06:17:36;;;;;;;11.25;10.45;;;;;;;20.82;75.76;99262.38;4985025;28;102126;-54
2022/09/18 06:20:04;;;;;;;12.05;11.25;;;;;;;20.83;75.82;99263.94;4988831;28;102665;-55
2022/09/18 06:22:32;;;;;;;10.55;9.85;;;;;;;20.83;75.77;99275.00;5017019;28;104237;-54
2022/09/18 06:24:58;;;;;;;11.65;10.93;;;;;;;20.84;75.66;99270.28;5021191;27;102429;-54
2022/09/18 06:27:26;;;;;;;11.15;10.45;;;;;;;20.85;75.79;99271.88;5004799;28;101883;-54
2022/09/18 06:29:53;;;;;;;11.33;10.63;;;;;;;20.86;75.86;99270.72;4998152;28;102099;-54
2022/09/18 06:32:19;;;;;;;12.02;11.13;;;;;;;20.86;75.87;99262.41;4997167;28;103892;-54
2022/09/18 06:34:47;;;;;;;12.05;11.35;;;;;;;20.86;75.88;99265.97;4998581;28;102283;-54
2022/09/18 06:37:15;;;;;;;11.25;10.55;;;;;;;20.86;75.71;99252.13;4998775;28;103006;-55
2022/09/18 06:39:42;;;;;;;13.38;12.48;;;;;;;20.88;75.78;99255.34;4998746;28;102239;-54
2022/09/18 06:42:08;;;;;;;12.45;11.75;;;;;;;20.88;75.79;99252.56;4998130;28;103889;-54
2022/09/18 06:44:36;;;;;;;10.38;9.75;;;;;;;20.90;75.73;99263.25;4998472;28;101922;-54
2022/09/18 06:47:03;;;;;;;11.07;10.27;;;;;;;20.90;75.68;99252.19;4998380;28;101894;-54
2022/09/18 06:49:29;;;;;;;11.85;11.10;;;;;;;20.92;75.60;99254.59;4998502;28;102697;-54
2022/09/18 06:51:56;;;;;;;11.07;10.48;;;;;;;20.91;75.62;99244.69;4997818;28;103955;-57
2022/09/18 06:54:23;;;;;;;11.90;11.23;;;;;;;20.92;75.58;99257.34;4997546;28;102188;-54
2022/09/18 06:56:49;;;;;;;13.10;12.20;;;;;;;20.93;75.66;99251.44;4995400;28;102403;-54
2022/09/18 06:59:16;;;;;;;11.68;10.93;;;;;;;20.93;75.30;99234.84;4986463;28;102468;-54
2022/09/18 07:01:46;;;;;;;12.20;11.45;;;;;;;20.95;75.54;99232.47;4996349;28;103876;-54
2022/09/18 07:04:12;;;;;;;10.20;9.50;;;;;;;20.96;75.37;99238.84;4996682;28;101913;-54
2022/09/18 07:06:39;;;;;;;10.85;10.02;;;;;;;20.97;75.45;99251.47;4997100;28;102008;-55
2022/09/18 07:09:05;;;;;;;10.82;10.23;;;;;;;20.98;75.39;99242.00;4998127;28;102428;-54
2022/09/18 07:11:32;;;;;;;11.40;10.55;;;;;;;20.98;75.57;99236.47;4997507;28;103959;-54
2022/09/18 07:14:03;;;;;;;10.85;10.25;;;;;;;20.98;75.38;99240.03;4998790;28;102053;-54
2022/09/18 07:16:30;;;;;;;11.55;10.60;;;;;;;21.00;75.42;99245.19;5016543;28;102449;-55
2022/09/18 07:18:58;;;;;;;11.60;10.18;;;;;;;21.01;75.34;99246.78;5017947;28;102170;-55
2022/09/18 07:21:25;;;;;;;11.10;10.48;;;;;;;21.02;75.42;99248.38;5015936;28;104349;-54
2022/09/18 07:23:51;;;;;;;10.40;9.80;;;;;;;21.03;75.45;99258.28;5017594;28;102405;-54
2022/09/18 07:26:18;;;;;;;10.55;9.95;;;;;;;21.03;75.49;99263.81;5017589;28;102259;-54
2022/09/18 07:28:45;;;;;;;11.18;10.25;;;;;;;21.03;75.32;99272.91;5018581;28;102132;-54
2022/09/18 07:31:12;;;;;;;11.27;10.43;;;;;;;21.04;75.36;99290.28;5016949;28;107894;-54
2022/09/18 07:33:39;;;;;;;11.90;11.10;;;;;;;21.03;75.41;99299.75;5017751;28;101996;-54
2022/09/18 07:36:07;;;;;;;11.57;10.95;;;;;;;21.02;75.49;99303.69;5016468;28;101935;-53
2022/09/18 07:38:34;;;;;;;10.70;10.00;;;;;;;21.00;75.51;99300.50;5017486;28;102577;-53
2022/09/18 07:41:01;;;;;;;10.38;9.57;;;;;;;21.00;75.38;99294.97;5005227;28;104772;-54
2022/09/18 07:43:28;;;;;;;11.52;10.82;;;;;;;20.98;75.53;99277.94;5011071;28;102422;-56
2022/09/18 07:45:55;;;;;;;8.45;7.85;;;;;;;20.98;75.40;99297.31;5016374;28;102212;-54
2022/09/18 07:48:23;;;;;;;10.07;9.52;;;;;;;20.98;75.47;99300.06;5012371;28;102159;-54
2022/09/18 07:50:49;;;;;;;9.85;9.25;;;;;;;20.99;75.37;99304.44;5010764;28;103907;-54
2022/09/18 07:53:17;;;;;;;8.23;7.72;;;;;;;20.98;75.47;99319.44;5014409;28;102634;-54
2022/09/18 07:55:46;;;;;;;10.05;9.45;;;;;;;20.96;75.51;99311.53;5014218;28;102049;-55
2022/09/18 07:58:13;;;;;;;11.55;10.75;;;;;;;20.95;75.48;99320.19;5014981;28;102623;-55
2022/09/18 08:00:40;;;;;;;9.82;9.23;;;;;;;20.93;75.67;99322.53;5014088;28;104019;-54
2022/09/18 08:03:10;;;;;;;11.75;10.57;;;;;;;20.93;75.62;99323.34;5014688;28;102357;-55
2022/09/18 08:05:37;;;;;;;9.90;9.30;;;;;;;20.91;75.58;99325.66;5014396;28;102131;-54
2022/09/18 08:08:04;;;;;;;10.70;10.00;;;;;;;20.91;75.69;99330.41;5014730;28;102087;-54
2022/09/18 08:10:33;;;;;;;10.68;10.00;;;;;;;20.92;75.74;99332.03;5009781;28;103957;-54
2022/09/18 08:13:01;;;;;;;10.30;9.60;;;;;;;20.92;75.65;99335.56;5013722;28;102042;-54
2022/09/18 08:15:28;;;;;;;11.00;10.30;;;;;;;20.93;75.56;99328.88;5013961;28;101842;-54
2022/09/18 08:17:54;;;;;;;9.00;8.45;;;;;;;20.94;75.58;99335.97;5014950;28;102255;-55
2022/09/18 08:20:21;;;;;;;8.77;8.13;;;;;;;20.96;75.43;99332.84;5000191;28;104064;-54
2022/09/18 08:22:47;;;;;;;9.98;9.38;;;;;;;20.98;75.33;99336.03;4994711;28;102521;-54
2022/09/18 08:25:14;;;;;;;10.20;9.68;;;;;;;20.98;75.32;99336.81;4993915;28;102472;-55
2022/09/18 08:27:43;;;;;;;9.52;8.93;;;;;;;20.98;75.42;99338.81;4995422;28;102099;-54
2022/09/18 08:30:12;;;;;;;9.05;8.43;;;;;;;20.98;75.26;99336.03;5009234;28;104142;-54
2022/09/18 08:32:39;;;;;;;9.70;9.10;;;;;;;20.98;75.41;99338.81;5013892;28;102191;-54
2022/09/18 08:35:06;;;;;;;8.68;8.07;;;;;;;20.97;75.42;99340.78;5014005;28;102254;-54
2022/09/18 08:37:33;;;;;;;9.23;8.73;;;;;;;20.96;75.34;99327.31;5014333;28;102280;-54
2022/09/18 08:40:00;;;;;;;9.48;8.68;;;;;;;20.96;75.37;99335.63;5012999;28;103896;-57
2022/09/18 08:42:36;;;;;;;8.88;8.38;;;;;;;20.95;75.42;99325.72;5014878;28;102594;-54
2022/09/18 08:45:19;;;;;;;10.25;9.57;;;;;;;20.96;75.42;99327.31;5012912;28;102328;-54
2022/09/18 08:47:50;;;;;;;8.30;7.80;;;;;;;20.94;75.46;99313.84;5009753;28;102326;-55
2022/09/18 08:50:20;;;;;;;8.18;7.72;;;;;;;20.96;75.34;99316.25;5012063;28;103859;-55
2022/09/18 08:52:50;;;;;;;9.00;8.50;;;;;;;20.95;75.26;99329.28;5013085;28;102386;-55
2022/09/18 08:55:23;;;;;;;10.13;9.52;;;;;;;20.93;75.52;99326.09;5013721;28;102252;-54
2022/09/18 08:57:54;;;;;;;10.10;9.40;;;;;;;20.93;75.47;99330.84;5013961;28;102150;-55
2022/09/18 09:00:23;;;;;;;9.68;9.07;;;;;;;20.92;75.30;99337.56;5012679;28;104079;-54
2022/09/18 09:02:52;;;;;;;9.38;8.68;;;;;;;20.92;75.45;99334.78;5016098;28;102220;-54
2022/09/18 09:05:21;;;;;;;8.95;8.30;;;;;;;20.92;75.33;99343.09;5016217;28;102429;-55
2022/09/18 09:08:15;;;;;;;8.70;8.15;;;;;;;20.92;75.43;99348.63;5017400;28;102086;-54
2022/09/18 09:10:49;;;;;;;7.97;7.57;;;;;;;20.92;75.39;99345.84;4967385;28;108161;-54
2022/09/18 09:13:37;;;;;;;9.30;8.60;;;;;;;20.94;75.30;99351.78;5013794;28;102324;-55
2022/09/18 09:16:13;;;;;;;9.27;8.70;;;;;;;20.93;75.38;99350.19;5015797;28;102546;-54
2022/09/18 09:18:52;;;;;;;9.35;8.65;;;;;;;20.92;75.32;99359.69;5018042;28;102188;-54
2022/09/18 09:21:21;;;;;;;8.20;7.57;;;;;;;20.92;75.40;99346.63;5016187;28;103838;-54
2022/09/18 09:24:07;;;;;;;7.75;7.28;;;;;;;20.92;75.31;99351.38;5016779;28;102529;-54
2022/09/18 09:26:34;;;;;;;7.82;7.32;;;;;;;20.92;75.33;99345.84;5017066;28;102059;-55
2022/09/18 09:29:05;;;;;;;8.80;8.20;;;;;;;20.92;75.26;99337.56;5017474;28;102299;-54
2022/09/18 09:31:37;;;;;;;9.40;8.85;;;;;;;20.93;75.33;99356.53;5016443;28;104072;-54
2022/09/18 09:34:11;;;;;;;8.55;8.05;;;;;;;20.93;75.18;99355.72;5017308;28;102009;-54
2022/09/18 09:36:41;;;;;;;10.02;9.43;;;;;;;20.93;75.13;99364.03;5014449;28;102177;-54
2022/09/18 09:39:17;;;;;;;9.85;9.18;;;;;;;20.93;74.89;99366.78;5018927;28;102142;-54
2022/09/18 09:41:49;;;;;;;8.60;7.90;;;;;;;20.93;75.17;99366.78;5017324;28;107729;-54
2022/09/18 09:44:37;;;;;;;9.55;8.85;;;;;;;20.93;75.00;99361.25;5018256;28;102110;-54
2022/09/18 09:47:17;;;;;;;8.90;8.38;;;;;;;20.95;75.10;99375.50;5017590;28;102029;-54
2022/09/18 09:49:55;;;;;;;9.38;8.77;;;;;;;20.93;74.92;99377.84;5018809;28;101993;-54
2022/09/18 09:52:24;;;;;;;9.25;8.65;;;;;;;20.96;74.84;99385.41;5013563;28;104115;-54
2022/09/18 09:54:55;;;;;;;8.07;7.57;;;;;;;20.95;74.82;99386.56;5012755;28;102472;-54
2022/09/18 09:57:29;;;;;;;8.32;7.82;;;;;;;20.93;74.95;99389.72;5017081;28;102387;-54
2022/09/18 10:00:03;;;;;;;7.47;7.03;;;;;;;20.94;74.92;99399.59;5016547;28;102360;-54
2022/09/18 10:02:46;;;;;;;6.78;6.30;;;;;;;20.95;75.06;99408.69;5013727;28;104065;-54
2022/09/18 10:05:23;;;;;;;6.95;6.55;;;;;;;20.93;74.89;99405.50;5017441;28;102289;-55
2022/09/18 10:07:59;;;;;;;8.07;7.45;;;;;;;20.92;75.02;99403.91;5015517;28;102303;-54
2022/09/18 10:10:33;;;;;;;8.45;7.88;;;;;;;20.91;74.99;99403.09;5016427;28;103678;-54
2022/09/18 10:13:08;;;;;;;9.10;8.57;;;;;;;20.91;75.04;99405.88;5006628;28;104035;-54
2022/09/18 10:15:39;;;;;;;8.90;8.13;;;;;;;20.91;74.99;99407.84;5013809;28;102500;-53
2022/09/18 10:18:13;;;;;;;9.65;9.13;;;;;;;20.91;74.93;99419.69;5013075;28;104569;-55
2022/09/18 10:20:42;;;;;;;10.38;9.68;;;;;;;20.90;74.91;99407.03;5017849;28;102148;-54
2022/09/18 10:23:14;;;;;;;10.23;9.55;;;;;;;20.89;74.90;99413.75;5016144;28;103928;-55
2022/09/18 10:25:45;;;;;;;10.00;9.40;;;;;;;20.90;74.94;99417.31;5018383;28;101970;-55
2022/09/18 10:28:13;;;;;;;10.43;9.68;;;;;;;20.90;74.90;99428.38;5018523;28;102322;-55
2022/09/18 10:30:53;;;;;;;10.73;10.02;;;;;;;20.90;74.87;99428.38;5017138;28;102453;-55
2022/09/18 10:33:33;;;;;;;9.63;8.80;;;;;;;20.90;74.92;99437.47;5016866;28;104208;-55
2022/09/18 10:36:07;;;;;;;8.68;8.18;;;;;;;20.90;74.99;99447.72;5015706;28;102342;-55
2022/09/18 10:38:36;;;;;;;9.02;8.43;;;;;;;20.88;74.89;99440.59;5017831;28;102158;-56
2022/09/18 10:41:26;;;;;;;;;;;;;;;20.90;74.86;99444.97;5013805;28;103624;-56
2022/09/18 10:44:03;;;;;;;7.60;7.10;;;;;;;20.89;74.89;99444.16;5000967;28;104016;-55
2022/09/18 10:46:34;;;;;;;10.23;9.48;;;;;;;20.87;74.92;99444.53;5012541;28;102114;-55
2022/09/18 10:49:17;;;;;;;9.68;9.07;;;;;;;20.88;75.01;99462.72;5015349;28;102068;-55
2022/09/18 10:51:44;;;;;;;9.32;8.73;;;;;;;20.88;74.85;99453.63;5015911;28;102130;-55
2022/09/18 10:54:16;;;;;;;8.25;7.75;;;;;;;20.88;74.94;99443.38;5014832;28;104031;-55
2022/09/18 10:56:43;;;;;;;9.98;9.38;;;;;;;20.89;74.83;99455.22;5005308;28;102081;-55
2022/09/18 10:59:30;;;;;;;10.10;9.40;;;;;;;20.89;74.69;99455.22;5009246;28;102051;-56
2022/09/18 11:02:00;;;;;;;8.07;7.57;;;;;;;20.87;74.79;99455.59;5011748;28;102637;-55
2022/09/18 11:04:28;;;;;;;8.48;7.88;;;;;;;20.87;74.86;99463.88;5015860;28;103901;-55
2022/09/18 11:06:57;;;;;;;10.43;9.70;;;;;;;20.86;74.78;99467.81;4999519;28;102444;-56
2022/09/18 11:09:30;;;;;;;11.98;10.98;;;;;;;20.86;74.83;99467.81;5007567;28;102477;-55
2022/09/18 11:11:56;;;;;;;11.55;10.90;;;;;;;20.86;74.78;99473.34;5011831;28;102417;-55
2022/09/18 11:14:25;;;;;;;11.60;10.70;;;;;;;20.85;74.94;99476.50;5008689;28;104104;-56
2022/09/18 11:16:55;;;;;;;11.40;10.70;;;;;;;20.85;74.71;99474.53;5016296;28;102090;-55
2022/09/18 11:19:26;;;;;;;11.52;10.73;;;;;;;20.83;74.68;99478.81;5013729;28;104590;-55
2022/09/18 11:21:58;;;;;;;11.13;10.43;;;;;;;20.84;74.65;99477.66;5017389;28;102288;-56
2022/09/18 11:24:26;;;;;;;9.85;9.27;;;;;;;20.83;74.63;99479.63;5012914;28;103887;-56
2022/09/18 11:26:53;;;;;;;10.97;10.27;;;;;;;20.82;74.12;99486.31;5018168;28;102084;-55